Time;durP1;ratioP1;P1;durP2;ratioP2;P2;SDS_P1;SDS_P2;PMS_P1;PMS_P2;Temp;Humidity;BMP_temperature;BMP_pressure;BME280_temperature;BME280_humidity;BME280_pressure;Samples;Min_cycle;Max_cycle;Signal;HPM_P1;HPM_P2
2023/07/04 00:01:11;;;;;;;;;16.33;14.33;;;;;24.45;63.83;100528.03;5036755;28;46007;-75
2023/07/04 00:03:38;;;;;;;;;15.33;14.67;;;;;24.42;64.17;100523.66;5020123;28;45613;-74
2023/07/04 00:06:06;;;;;;;;;15.33;14.00;;;;;24.50;63.17;100526.13;5031420;28;45304;-74
2023/07/04 00:08:35;;;;;;;;;13.33;12.33;;;;;24.53;63.35;100528.72;5032439;28;45441;-74
2023/07/04 00:11:03;;;;;;;;;14.00;11.00;;;;;24.47;63.07;100524.41;5029374;28;46912;-74
2023/07/04 00:13:30;;;;;;;;;14.00;12.33;;;;;24.44;62.61;100516.47;5016885;28;45475;-74
2023/07/04 00:15:57;;;;;;;;;14.00;12.00;;;;;24.52;62.43;100527.84;5035305;28;45525;-74
2023/07/04 00:18:25;;;;;;;;;12.33;11.67;;;;;24.47;62.23;100519.09;5036284;28;45531;-74
2023/07/04 00:20:55;;;;;;;;;15.33;15.00;;;;;24.50;62.52;100512.78;5036288;28;45407;-75
2023/07/04 00:23:25;;;;;;;;;13.00;12.33;;;;;24.49;62.78;100519.91;5021677;28;45549;-74
2023/07/04 00:25:54;;;;;;;;;13.67;12.33;;;;;24.44;62.92;100502.25;5016174;28;45636;-74
2023/07/04 00:28:21;;;;;;;;;13.67;12.33;;;;;24.47;63.26;100516.41;5018014;28;45508;-74
2023/07/04 00:30:52;;;;;;;;;11.33;9.00;;;;;24.50;63.30;100519.00;5027481;28;45517;-75
2023/07/04 00:33:22;;;;;;;;;12.33;10.33;;;;;24.48;63.35;100503.94;5021622;28;45759;-74
2023/07/04 00:35:48;;;;;;;;;12.33;10.67;;;;;24.51;63.35;100502.09;5032436;28;45612;-74
2023/07/04 00:38:15;;;;;;;;;13.00;12.67;;;;;24.54;63.07;100518.00;5024333;28;45718;-74
2023/07/04 00:40:40;;;;;;;;;14.67;12.33;;;;;24.54;63.19;100518.00;5021517;28;45556;-74
2023/07/04 00:43:10;;;;;;;;;13.67;10.67;;;;;24.52;63.15;100514.50;5016660;28;46304;-74
2023/07/04 00:45:42;;;;;;;;;15.33;13.67;;;;;24.51;62.92;100498.50;5020614;28;45369;-74
2023/07/04 00:48:12;;;;;;;;;17.33;15.00;;;;;24.59;63.30;100501.84;5034837;28;45628;-74
2023/07/04 00:50:49;;;;;;;;;15.33;14.33;;;;;24.51;62.88;100501.19;5036352;28;45569;-74
2023/07/04 00:53:16;;;;;;;;;12.33;11.33;;;;;24.58;62.88;100502.78;5016533;28;45506;-74
2023/07/04 00:55:48;;;;;;;;;13.33;11.00;;;;;24.60;63.16;100504.47;5021764;28;46028;-75
2023/07/04 00:58:15;;;;;;;;;15.67;14.67;;;;;24.64;63.19;100489.25;5025298;28;45217;-74
2023/07/04 01:00:42;;;;;;;;;13.67;12.67;;;;;24.65;62.78;100493.69;5015340;28;46941;-74
2023/07/04 01:03:14;;;;;;;;;12.67;10.67;;;;;24.60;63.30;100485.78;5035325;28;45588;-75
2023/07/04 01:05:49;;;;;;;;;17.33;15.67;;;;;24.56;63.26;100488.59;5028209;28;45319;-74
2023/07/04 01:08:42;;;;;;;;;13.00;12.33;;;;;24.57;62.50;100490.31;5002163;28;45531;-74
2023/07/04 01:11:15;;;;;;;;;14.67;14.00;;;;;24.56;62.78;100507.28;5015623;28;46382;-74
2023/07/04 01:13:45;;;;;;;;;14.33;13.33;;;;;24.51;63.01;100503.84;5010305;28;45465;-74
2023/07/04 01:16:14;;;;;;;;;13.33;11.00;;;;;24.50;62.95;100505.66;5028232;28;45749;-74
2023/07/04 01:18:44;;;;;;;;;12.67;10.33;;;;;24.44;63.59;100502.25;5029268;28;45376;-74
2023/07/04 01:21:11;;;;;;;;;14.33;11.67;;;;;24.42;63.91;100508.50;5019089;28;45597;-75
2023/07/04 01:23:55;;;;;;;;;17.00;15.00;;;;;24.44;63.81;100507.59;5029081;28;45520;-75
2023/07/04 01:26:34;;;;;;;;;11.00;11.00;;;;;24.43;63.36;100490.69;5024728;28;45514;-74
2023/07/04 01:29:03;;;;;;;;;14.33;12.00;;;;;24.37;62.80;100475.75;5032209;28;45549;-74
2023/07/04 01:31:30;;;;;;;;;14.67;13.67;;;;;24.31;63.58;100481.25;5020767;28;45293;-74
2023/07/04 01:33:57;;;;;;;;;15.33;13.00;;;;;24.34;63.69;100505.19;5025628;28;45284;-74
2023/07/04 01:36:27;;;;;;;;;9.67;8.33;;;;;24.27;63.71;100484.91;5023410;28;45475;-74
2023/07/04 01:38:52;;;;;;;;;16.67;14.00;;;;;24.33;63.48;100491.88;5017288;28;45531;-75
2023/07/04 01:41:19;;;;;;;;;10.67;9.67;;;;;24.40;63.78;100501.47;5035434;28;46002;-74
2023/07/04 01:43:50;;;;;;;;;14.33;13.33;;;;;24.36;64.95;100497.13;5035241;28;45683;-74
2023/07/04 01:46:17;;;;;;;;;14.33;13.67;;;;;24.25;63.98;100494.75;5035821;28;45540;-75
2023/07/04 01:48:42;;;;;;;;;15.33;13.33;;;;;24.21;64.63;100479.72;5036026;28;45577;-74
2023/07/04 01:51:08;;;;;;;;;14.00;10.67;;;;;24.20;64.25;100473.53;5021198;28;46012;-74
2023/07/04 01:53:33;;;;;;;;;13.00;12.00;;;;;24.19;63.61;100487.81;5016269;28;45391;-75
2023/07/04 01:55:59;;;;;;;;;14.67;13.33;;;;;24.14;64.50;100489.72;5020596;28;47074;-74
2023/07/04 01:58:24;;;;;;;;;14.33;13.00;;;;;24.08;64.08;100479.19;5031393;28;45453;-74
2023/07/04 02:00:50;;;;;;;;;14.33;14.00;;;;;24.10;64.70;100484.50;5036446;28;47558;-74
2023/07/04 02:03:15;;;;;;;;;13.67;9.33;;;;;24.06;64.83;100485.50;5031137;28;45363;-74
2023/07/04 02:05:41;;;;;;;;;15.67;14.00;;;;;23.94;65.32;100492.91;5019491;28;45588;-74
2023/07/04 02:08:06;;;;;;;;;11.00;10.33;;;;;23.95;66.01;100473.31;5019048;28;45340;-74
2023/07/04 02:10:32;;;;;;;;;13.00;10.67;;;;;23.95;65.54;100464.44;5018721;28;46243;-74
2023/07/04 02:12:57;;;;;;;;;11.67;11.00;;;;;23.84;65.64;100451.38;5021435;28;46065;-74
2023/07/04 02:15:24;;;;;;;;;12.00;11.00;;;;;23.84;65.82;100471.84;5020468;28;45514;-74
2023/07/04 02:17:50;;;;;;;;;13.33;11.67;;;;;23.80;66.35;100481.72;5018854;28;45465;-75
2023/07/04 02:20:16;;;;;;;;;11.00;9.67;;;;;23.71;65.94;100471.25;5018769;28;46186;-74
2023/07/04 02:22:43;;;;;;;;;11.33;10.00;;;;;23.72;65.84;100473.00;5019073;28;45383;-74
2023/07/04 02:25:09;;;;;;;;;10.00;9.00;;;;;23.73;66.44;100472.94;5017728;28;45407;-74
2023/07/04 02:27:35;;;;;;;;;13.67;11.00;;;;;23.77;66.55;100463.97;5019367;28;45212;-74
2023/07/04 02:30:01;;;;;;;;;13.00;11.67;;;;;23.78;66.79;100460.41;5019092;28;45576;-74
2023/07/04 02:32:26;;;;;;;;;12.33;12.00;;;;;23.75;66.75;100454.25;5019988;28;45420;-74
2023/07/04 02:34:52;;;;;;;;;13.00;11.67;;;;;23.70;67.14;100454.38;5014858;28;45289;-74
2023/07/04 02:37:18;;;;;;;;;13.33;13.33;;;;;23.73;66.87;100456.94;5010855;28;45308;-74
2023/07/04 02:39:44;;;;;;;;;11.33;9.33;;;;;23.80;66.88;100450.59;5008936;28;45324;-74
2023/07/04 02:42:09;;;;;;;;;12.67;11.00;;;;;23.74;67.30;100442.72;5024488;28;45867;-74
2023/07/04 02:44:35;;;;;;;;;13.33;11.33;;;;;23.84;67.37;100453.19;5030075;28;45352;-74
2023/07/04 02:47:01;;;;;;;;;13.67;13.33;;;;;23.73;66.57;100445.41;5012771;28;46524;-75
2023/07/04 02:49:26;;;;;;;;;16.33;14.33;;;;;23.74;66.64;100453.38;5015707;28;45546;-74
2023/07/04 02:51:52;;;;;;;;;14.67;13.33;;;;;23.73;67.01;100461.41;5019695;28;45422;-74
2023/07/04 02:54:18;;;;;;;;;13.67;11.67;;;;;23.72;66.52;100454.34;5029749;28;45578;-74
2023/07/04 02:56:44;;;;;;;;;15.00;11.00;;;;;23.72;66.81;100444.53;5019370;28;45283;-74
2023/07/04 02:59:10;;;;;;;;;14.67;12.67;;;;;23.78;66.99;100441.75;5022714;28;46116;-74
2023/07/04 03:01:35;;;;;;;;;14.33;13.00;;;;;23.74;68.36;100439.19;5028739;28;45565;-74
2023/07/04 03:04:01;;;;;;;;;13.33;12.67;;;;;23.72;67.84;100436.53;5019202;28;45510;-74
2023/07/04 03:06:26;;;;;;;;;12.00;11.33;;;;;23.72;67.99;100444.53;5018969;28;45400;-74
2023/07/04 03:08:53;;;;;;;;;14.33;13.33;;;;;23.72;67.81;100449.00;5015938;28;47626;-74
2023/07/04 03:11:19;;;;;;;;;15.67;12.33;;;;;23.76;67.49;100434.69;5018198;28;45525;-74
2023/07/04 03:13:44;;;;;;;;;9.00;6.67;;;;;23.74;66.73;100434.72;5030010;28;45292;-74
2023/07/04 03:16:10;;;;;;;;;15.33;13.67;;;;;23.76;67.54;100434.69;5035571;28;45871;-74
2023/07/04 03:18:35;;;;;;;;;12.33;12.00;;;;;23.68;67.66;100440.22;5021657;28;45970;-74
2023/07/04 03:21:01;;;;;;;;;14.00;12.00;;;;;23.71;67.44;100448.09;5032249;28;45376;-74
2023/07/04 03:23:27;;;;;;;;;13.33;12.00;;;;;23.73;67.31;100446.28;5026707;28;45809;-74
2023/07/04 03:25:52;;;;;;;;;16.67;13.67;;;;;23.74;67.20;100444.50;5032055;28;45411;-74
2023/07/04 03:28:18;;;;;;;;;12.00;11.33;;;;;23.72;67.22;100433.00;5034450;28;45619;-75
2023/07/04 03:30:48;;;;;;;;;13.00;12.00;;;;;23.73;66.81;100430.28;5039258;28;45773;-74
2023/07/04 03:33:13;;;;;;;;;13.00;13.00;;;;;23.71;66.71;100439.25;5009034;28;45452;-74
2023/07/04 03:35:41;;;;;;;;;12.33;10.67;;;;;23.70;67.00;100432.16;5026071;28;45329;-74
2023/07/04 03:38:07;;;;;;;;;15.33;13.33;;;;;23.48;68.87;100427.38;5014886;28;45150;-74
2023/07/04 03:40:34;;;;;;;;;14.00;10.67;;;;;23.53;68.24;100435.25;5020680;28;45451;-74
2023/07/04 03:43:00;;;;;;;;;13.67;11.67;;;;;23.49;67.92;100430.91;5036246;28;45345;-74
2023/07/04 03:45:25;;;;;;;;;16.00;14.33;;;;;23.60;67.42;100439.53;5020997;28;45517;-74
2023/07/04 03:47:53;;;;;;;;;12.67;11.67;;;;;23.60;67.28;100437.72;5039315;28;45790;-74
2023/07/04 03:50:18;;;;;;;;;13.00;12.00;;;;;23.50;67.08;100416.69;5040719;28;45493;-75
2023/07/04 03:52:44;;;;;;;;;13.67;11.67;;;;;23.61;67.10;100435.94;5027670;28;45468;-74
2023/07/04 03:55:10;;;;;;;;;12.67;11.00;;;;;23.59;67.18;100438.63;5020941;28;45450;-74
2023/07/04 03:57:36;;;;;;;;;13.00;11.33;;;;;23.60;67.36;100435.06;5020440;28;46220;-74
2023/07/04 04:00:05;;;;;;;;;15.67;13.33;;;;;23.56;67.47;100436.06;5039404;28;45407;-74
2023/07/04 04:02:31;;;;;;;;;13.33;11.67;;;;;23.53;68.07;100438.78;5023472;28;45423;-74
2023/07/04 04:04:56;;;;;;;;;17.33;13.00;;;;;23.57;67.15;100436.94;5039640;28;45405;-74
2023/07/04 04:07:24;;;;;;;;;13.33;11.67;;;;;23.56;67.12;100437.88;5035707;28;45507;-74
2023/07/04 04:09:50;;;;;;;;;12.67;9.33;;;;;23.57;68.36;100442.25;5011572;28;45491;-74
2023/07/04 04:12:16;;;;;;;;;13.00;10.00;;;;;23.39;68.56;100440.94;5001359;28;45456;-74
2023/07/04 04:14:41;;;;;;;;;11.67;11.00;;;;;23.21;69.10;100437.78;5019035;28;45428;-73
2023/07/04 04:17:08;;;;;;;;;12.00;9.67;;;;;23.10;69.17;100439.84;5017013;28;46039;-73
2023/07/04 04:19:44;;;;;;;;;11.67;10.00;;;;;23.03;69.66;100438.25;5029779;28;45336;-74
2023/07/04 04:22:09;;;;;;;;;12.00;12.00;;;;;23.08;69.47;100438.13;5009334;28;45521;-73
2023/07/04 04:24:37;;;;;;;;;14.33;11.67;;;;;23.05;69.29;100433.75;5009963;28;45618;-74
2023/07/04 04:27:08;;;;;;;;;12.33;11.00;;;;;23.05;69.35;100436.41;5028998;28;46065;-74
2023/07/04 04:29:34;;;;;;;;;15.00;12.00;;;;;22.96;69.03;100425.94;5009549;28;45498;-74
2023/07/04 04:32:00;;;;;;;;;9.33;9.33;;;;;22.95;69.47;100426.84;5014207;28;45474;-74
2023/07/04 04:34:27;;;;;;;;;12.00;10.00;;;;;22.95;70.10;100424.19;5018450;28;45511;-74
2023/07/04 04:36:52;;;;;;;;;14.67;13.00;;;;;22.93;69.72;100436.66;4994355;28;45706;-73
2023/07/04 04:39:18;;;;;;;;;12.33;10.67;;;;;22.94;69.72;100427.75;5034461;28;45257;-74
2023/07/04 04:41:44;;;;;;;;;14.00;12.67;;;;;22.96;69.26;100432.16;5014880;28;45414;-74
2023/07/04 04:44:09;;;;;;;;;10.33;9.33;;;;;22.68;68.82;100380.41;5014284;28;45344;-74
2023/07/04 04:46:40;;;;;;;;;15.67;12.00;;;;;22.90;69.63;100436.72;5012632;28;45451;-77
2023/07/04 04:49:08;;;;;;;;;10.00;10.00;;;;;22.99;69.26;100437.38;5013747;28;45357;-73
2023/07/04 04:51:34;;;;;;;;;13.00;11.67;;;;;22.97;69.33;100439.22;5011965;28;45951;-72
2023/07/04 04:54:01;;;;;;;;;13.67;12.33;;;;;22.97;68.56;100435.69;5013883;28;45470;-73
2023/07/04 04:56:27;;;;;;;;;14.33;13.33;;;;;22.94;69.05;100438.41;5013845;28;46265;-73
2023/07/04 04:58:53;;;;;;;;;10.00;9.33;;;;;22.90;68.48;100429.63;5012711;28;45529;-73
2023/07/04 05:01:23;;;;;;;;;14.33;13.00;;;;;22.91;69.36;100436.69;5014437;28;45325;-73
2023/07/04 05:03:54;;;;;;;;;11.67;9.67;;;;;22.90;68.63;100436.72;5015448;28;45514;-72
2023/07/04 05:06:22;;;;;;;;;12.33;10.67;;;;;22.92;68.87;100435.78;5005817;28;45935;-73
2023/07/04 05:08:48;;;;;;;;;13.33;12.33;;;;;22.92;68.68;100442.88;5007860;28;45777;-72
2023/07/04 05:11:14;;;;;;;;;14.00;12.00;;;;;22.99;69.10;100445.38;5006281;28;45511;-73
2023/07/04 05:13:41;;;;;;;;;13.67;12.67;;;;;23.13;68.71;100444.22;5017861;28;45598;-73
2023/07/04 05:16:09;;;;;;;;;17.67;14.00;;;;;22.96;68.85;100399.28;5023500;28;46198;-73
2023/07/04 05:18:36;;;;;;;;;13.00;9.67;;;;;23.21;68.47;100445.78;5014285;28;45522;-72
2023/07/04 05:21:14;;;;;;;;;13.00;11.33;;;;;23.26;69.25;100452.78;5005762;28;45770;-73
2023/07/04 05:23:42;;;;;;;;;12.67;10.00;;;;;23.19;69.19;100442.28;5006886;28;45561;-73
2023/07/04 05:26:19;;;;;;;;;14.33;10.33;;;;;23.25;69.38;100443.06;5010109;28;45517;-73
2023/07/04 05:28:45;;;;;;;;;19.00;14.33;;;;;23.28;69.13;100453.63;5015118;28;45337;-73
2023/07/04 05:31:13;;;;;;;;;13.67;12.33;;;;;23.23;69.47;100443.09;5033287;28;45501;-73
2023/07/04 05:33:39;;;;;;;;;13.67;12.67;;;;;23.25;69.78;100446.59;5024536;28;45933;-73
2023/07/04 05:36:14;;;;;;;;;16.00;13.00;;;;;23.29;69.38;100444.75;5006608;28;45902;-73
2023/07/04 05:38:40;;;;;;;;;14.33;10.33;;;;;23.32;68.94;100442.88;5012149;28;45634;-73
2023/07/04 05:41:10;;;;;;;;;13.00;12.33;;;;;23.31;69.43;100448.25;5027140;28;45429;-73
2023/07/04 05:43:36;;;;;;;;;14.67;13.67;;;;;23.33;69.12;100454.41;5007080;28;45684;-73
2023/07/04 05:46:02;;;;;;;;;13.00;12.67;;;;;23.35;69.17;100455.25;5006004;28;45512;-73
2023/07/04 05:48:28;;;;;;;;;11.67;11.33;;;;;23.25;69.20;100443.94;5006877;28;45313;-72
2023/07/04 05:50:55;;;;;;;;;13.00;12.33;;;;;23.19;69.07;100446.75;5009738;28;46117;-72
2023/07/04 05:53:23;;;;;;;;;15.00;12.00;;;;;23.26;68.85;100458.13;5008782;28;45532;-72
2023/07/04 05:55:50;;;;;;;;;16.67;14.00;;;;;23.21;68.62;100434.25;5008166;28;46100;-73
2023/07/04 05:58:17;;;;;;;;;13.67;12.67;;;;;23.33;68.08;100446.41;5011169;28;45485;-72
2023/07/04 06:00:43;;;;;;;;;13.00;10.00;;;;;23.37;68.11;100448.97;5011653;28;45553;-73
2023/07/04 06:03:09;;;;;;;;;9.33;8.67;;;;;23.45;67.77;100446.09;5016877;28;45644;-73
2023/07/04 06:05:39;;;;;;;;;12.67;10.33;;;;;23.47;68.00;100435.41;5019616;28;45739;-73
2023/07/04 06:08:05;;;;;;;;;13.00;10.00;;;;;23.53;67.71;100433.47;5015674;28;45650;-73
2023/07/04 06:10:30;;;;;;;;;14.00;13.00;;;;;23.68;67.55;100426.88;5014964;28;45341;-73
2023/07/04 06:12:56;;;;;;;;;13.33;12.00;;;;;23.74;67.16;100413.38;4997753;28;45667;-73
2023/07/04 06:15:23;;;;;;;;;17.33;13.33;;;;;23.87;67.58;100431.75;5028801;28;46410;-73
2023/07/04 06:17:48;;;;;;;;;14.67;13.00;;;;;23.93;67.13;100434.25;5017480;28;45903;-73
2023/07/04 06:20:14;;;;;;;;;13.00;12.67;;;;;23.93;67.34;100434.25;5015486;28;45315;-73
2023/07/04 06:22:40;;;;;;;;;12.67;11.00;;;;;24.09;66.82;100438.25;5004633;28;45371;-73
2023/07/04 06:25:06;;;;;;;;;16.67;12.00;;;;;24.15;66.08;100431.84;5008096;28;46986;-73
2023/07/04 06:27:32;;;;;;;;;18.67;14.67;;;;;24.16;66.07;100438.97;5030567;28;45403;-73
2023/07/04 06:29:58;;;;;;;;;23.00;16.00;;;;;24.13;65.81;100445.28;5033767;28;45533;-73
2023/07/04 06:32:23;;;;;;;;;17.67;13.67;;;;;24.07;65.96;100440.06;5026289;28;45485;-73
2023/07/04 06:34:49;;;;;;;;;12.67;10.67;;;;;24.20;65.64;100437.97;5028247;28;45460;-73
2023/07/04 06:37:14;;;;;;;;;15.00;13.67;;;;;24.36;65.10;100444.59;5018083;28;45767;-73
2023/07/04 06:39:41;;;;;;;;;13.00;11.33;;;;;24.45;64.88;100440.78;5015882;28;45332;-73
2023/07/04 06:42:07;;;;;;;;;12.67;11.33;;;;;24.51;64.18;100443.34;5013869;28;45511;-72
2023/07/04 06:44:32;;;;;;;;;16.67;11.00;;;;;24.59;64.54;100451.09;5013184;28;45502;-71
2023/07/04 06:46:58;;;;;;;;;10.67;10.00;;;;;24.65;64.38;100448.28;5019803;28;45346;-73
2023/07/04 06:49:23;;;;;;;;;9.67;9.00;;;;;24.68;64.02;100457.97;5023538;28;45424;-75
2023/07/04 06:51:49;;;;;;;;;15.67;12.67;;;;;24.63;63.59;100436.75;5016888;28;45708;-75
2023/07/04 06:54:14;;;;;;;;;16.33;13.67;;;;;24.74;63.29;100463.13;5018003;28;45937;-74
2023/07/04 06:56:40;;;;;;;;;10.33;8.67;;;;;24.77;63.32;100461.25;5031583;28;45698;-73
2023/07/04 06:59:06;;;;;;;;;13.00;11.33;;;;;24.81;63.44;100462.03;5023425;28;45486;-74
2023/07/04 07:01:32;;;;;;;;;13.00;11.00;;;;;24.92;63.69;100475.94;5020316;28;45659;-72
2023/07/04 07:03:59;;;;;;;;;14.00;12.33;;;;;24.87;64.37;100476.97;5028932;28;45546;-70
2023/07/04 07:06:26;;;;;;;;;15.00;14.33;;;;;24.65;64.27;100444.69;5016384;28;45193;-80
2023/07/04 07:08:52;;;;;;;;;12.00;12.00;;;;;24.83;64.50;100473.56;5018781;28;45485;-75
2023/07/04 07:11:19;;;;;;;;;17.67;13.33;;;;;24.76;64.23;100459.50;5017273;28;45502;-73
2023/07/04 07:13:46;;;;;;;;;14.67;14.00;;;;;24.86;64.24;100475.25;5019138;28;45632;-73
2023/07/04 07:16:14;;;;;;;;;14.33;12.67;;;;;24.96;64.16;100468.69;5017717;28;45360;-73
2023/07/04 07:18:42;;;;;;;;;14.00;10.33;;;;;25.07;64.02;100469.25;5023481;28;45480;-72
2023/07/04 07:21:09;;;;;;;;;14.67;12.00;;;;;25.21;64.19;100471.50;5031952;28;45484;-73
2023/07/04 07:23:36;;;;;;;;;13.67;12.33;;;;;25.31;63.55;100461.41;5024380;28;45536;-72
2023/07/04 07:26:04;;;;;;;;;16.00;13.67;;;;;25.34;61.53;100467.50;5017252;28;45545;-73
2023/07/04 07:28:33;;;;;;;;;15.33;15.00;;;;;25.40;61.85;100466.44;5017183;28;45181;-74
2023/07/04 07:31:03;;;;;;;;;15.33;14.00;;;;;25.46;60.87;100458.22;5022853;28;47091;-73
2023/07/04 07:33:34;;;;;;;;;13.67;11.33;;;;;25.54;60.95;100471.34;5033332;28;46913;-72
2023/07/04 07:36:07;;;;;;;;;14.67;13.33;;;;;25.64;60.46;100474.56;5026141;28;45359;-71
2023/07/04 07:38:32;;;;;;;;;15.33;13.67;;;;;25.62;59.79;100474.63;5014332;28;45682;-72
2023/07/04 07:40:58;;;;;;;;;16.33;14.67;;;;;25.69;59.11;100469.97;5022559;28;45484;-72
2023/07/04 07:43:23;;;;;;;;;13.00;11.00;;;;;25.80;59.56;100473.13;5017551;28;46364;-71
2023/07/04 07:45:49;;;;;;;;;14.33;12.33;;;;;25.97;58.87;100462.75;5017331;28;45568;-71
2023/07/04 07:48:16;;;;;;;;;14.67;12.00;;;;;26.15;58.83;100474.59;5032798;28;45628;-70
2023/07/04 07:50:43;;;;;;;;;11.00;10.33;;;;;26.37;59.09;100476.50;5018056;28;45459;-71
2023/07/04 07:53:09;;;;;;;;;13.33;12.00;;;;;26.50;59.11;100463.53;5016642;28;46304;-71
2023/07/04 07:55:35;;;;;;;;;12.00;11.00;;;;;26.64;58.83;100474.66;5016105;28;45707;-71
2023/07/04 07:58:01;;;;;;;;;13.00;12.00;;;;;26.81;58.22;100482.03;5016684;28;45641;-71
2023/07/04 08:00:29;;;;;;;;;11.33;10.67;;;;;26.94;58.16;100479.78;5017082;28;45663;-72
2023/07/04 08:02:54;;;;;;;;;16.67;12.67;;;;;27.12;57.37;100484.41;5018539;28;45445;-71
2023/07/04 08:05:20;;;;;;;;;13.33;12.00;;;;;27.24;57.21;100483.06;5017276;28;45383;-71
2023/07/04 08:07:45;;;;;;;;;12.67;12.33;;;;;27.37;56.90;100481.63;5019134;28;45418;-71
2023/07/04 08:10:11;;;;;;;;;14.00;11.00;;;;;27.49;56.32;100480.25;5016062;28;45518;-71
2023/07/04 08:12:36;;;;;;;;;12.67;11.33;;;;;27.58;55.60;100482.56;5016875;28;45492;-71
2023/07/04 08:15:02;;;;;;;;;10.33;9.67;;;;;27.69;55.63;100463.31;5017926;28;45439;-71
2023/07/04 08:17:28;;;;;;;;;11.00;9.67;;;;;27.96;54.33;100477.38;5031784;28;45569;-71
2023/07/04 08:19:53;;;;;;;;;13.00;11.00;;;;;28.10;53.74;100483.97;5015340;28;45387;-73
2023/07/04 08:22:20;;;;;;;;;12.67;12.00;;;;;28.12;53.19;100479.41;5016417;28;45399;-72
2023/07/04 08:24:46;;;;;;;;;11.67;11.00;;;;;28.19;53.38;100483.56;5017674;28;45608;-72
2023/07/04 08:27:11;;;;;;;;;17.33;14.00;;;;;28.00;52.48;100486.19;5018207;28;45417;-73
2023/07/04 08:29:37;;;;;;;;;14.33;12.00;;;;;27.97;53.58;100483.63;5016762;28;45534;-71
2023/07/04 08:32:03;;;;;;;;;12.33;11.33;;;;;28.12;53.05;100492.84;5016218;28;45501;-72
2023/07/04 08:34:28;;;;;;;;;11.67;11.00;;;;;28.23;52.39;100485.19;5014969;28;45536;-73
2023/07/04 08:36:54;;;;;;;;;11.67;11.00;;;;;28.32;51.91;100490.13;5015491;28;45494;-72
2023/07/04 08:39:20;;;;;;;;;11.33;11.00;;;;;28.34;51.52;100492.75;5015823;28;45448;-72
2023/07/04 08:41:59;;;;;;;;;17.33;15.33;;;;;28.19;51.77;100475.50;5015902;28;45550;-73
2023/07/04 08:44:38;;;;;;;;;13.33;10.33;;;;;28.39;50.70;100492.53;5014398;28;45446;-74
2023/07/04 08:47:05;;;;;;;;;11.00;11.00;;;;;28.47;50.92;100485.00;5015661;28;45456;-73
2023/07/04 08:49:50;;;;;;;;;13.33;12.00;;;;;28.49;50.69;100480.44;5015680;28;45383;-74
2023/07/04 08:52:39;;;;;;;;;12.67;10.67;;;;;28.63;50.18;100493.28;5017455;28;45557;-73
2023/07/04 08:55:10;;;;;;;;;11.00;11.00;;;;;28.56;49.40;100503.44;5027270;28;45502;-73
2023/07/04 08:57:54;;;;;;;;;13.33;11.00;;;;;28.46;48.14;100500.25;5018454;28;46374;-72
2023/07/04 09:00:30;;;;;;;;;14.33;10.67;;;;;28.33;48.27;100493.69;5015985;28;45532;-74
2023/07/04 09:03:09;;;;;;;;;12.67;11.67;;;;;28.27;49.38;100481.44;5000689;28;47476;-74
2023/07/04 09:05:49;;;;;;;;;9.33;9.00;;;;;28.56;49.02;100501.63;5020498;28;45385;-71
2023/07/04 09:08:17;;;;;;;;;14.00;12.00;;;;;28.66;48.10;100502.06;5024372;28;45481;-72
2023/07/04 09:10:52;;;;;;;;;11.33;9.33;;;;;28.64;48.59;100498.59;5022795;28;45326;-74
2023/07/04 09:13:27;;;;;;;;;15.00;11.67;;;;;28.82;48.57;100501.38;5030534;28;46120;-72
2023/07/04 09:15:57;;;;;;;;;12.00;11.33;;;;;28.91;48.50;100500.94;5015422;28;45502;-74
2023/07/04 09:18:49;;;;;;;;;11.00;10.00;;;;;28.94;48.49;100498.97;5015658;28;45714;-72
2023/07/04 09:21:16;;;;;;;;;10.67;8.67;;;;;28.92;48.63;100500.84;5026847;28;45390;-72
2023/07/04 09:23:44;;;;;;;;;9.67;9.00;;;;;29.02;47.61;100495.06;5021993;28;46236;-74
2023/07/04 09:26:14;;;;;;;;;9.33;9.00;;;;;29.15;47.18;100499.81;5019099;28;45435;-75
2023/07/04 09:28:43;;;;;;;;;5.67;5.00;;;;;29.20;47.48;100496.00;5014141;28;45334;-72
2023/07/04 09:31:16;;;;;;;;;9.00;8.67;;;;;29.27;47.95;100500.16;5014739;28;45887;-74
2023/07/04 09:33:44;;;;;;;;;9.00;6.67;;;;;29.31;47.18;100494.56;5014269;28;45584;-74
2023/07/04 09:36:10;;;;;;;;;6.33;6.33;;;;;29.37;46.75;100496.06;5012191;28;45521;-74
2023/07/04 09:38:58;;;;;;;;;9.33;8.00;;;;;29.50;46.81;100507.09;5026794;28;45417;-73
2023/07/04 09:41:30;;;;;;;;;7.33;7.33;;;;;29.67;46.72;100503.56;5024882;28;45528;-73
2023/07/04 09:44:19;;;;;;;;;8.00;8.00;;;;;29.85;46.21;100501.81;5024294;28;45393;-72
2023/07/04 09:46:50;;;;;;;;;7.33;7.00;;;;;29.97;46.15;100505.69;5017655;28;45690;-72
2023/07/04 09:49:23;;;;;;;;;9.00;7.00;;;;;30.02;45.98;100503.59;5035616;28;45453;-72
2023/07/04 09:52:04;;;;;;;;;8.00;7.00;;;;;29.94;46.35;100510.28;5036323;28;45738;-73
2023/07/04 09:54:36;;;;;;;;;10.67;9.33;;;;;29.97;46.13;100506.56;5020171;28;46262;-74
2023/07/04 09:57:21;;;;;;;;;11.67;10.00;;;;;30.01;46.22;100508.13;5019514;28;45414;-74
2023/07/04 09:59:47;;;;;;;;;10.67;8.67;;;;;29.97;46.67;100505.69;5017347;28;45621;-74
2023/07/04 10:02:23;;;;;;;;;12.33;10.33;;;;;29.86;46.99;100473.91;5022744;28;45569;-72
2023/07/04 10:04:50;;;;;;;;;9.00;8.00;;;;;30.11;47.18;100513.91;5015019;28;45418;-73
2023/07/04 10:07:20;;;;;;;;;8.33;7.33;;;;;29.95;46.96;100505.75;5022516;28;45321;-73
2023/07/04 10:09:59;;;;;;;;;9.00;9.00;;;;;29.77;47.39;100493.25;5023295;28;45471;-72
2023/07/04 10:12:28;;;;;;;;;9.33;9.00;;;;;29.77;47.68;100529.13;5015126;28;45447;-74
2023/07/04 10:14:58;;;;;;;;;10.67;9.00;;;;;29.70;47.93;100525.81;5013974;28;45673;-73
2023/07/04 10:17:33;;;;;;;;;7.00;6.67;;;;;29.35;48.47;100476.44;5025685;28;45264;-73
2023/07/04 10:20:10;;;;;;;;;12.33;12.33;;;;;29.49;48.13;100511.59;5029309;28;45435;-72
2023/07/04 10:22:38;;;;;;;;;9.00;8.33;;;;;29.33;48.11;100524.94;5018320;28;45441;-73
2023/07/04 10:25:11;;;;;;;;;12.67;11.33;;;;;29.16;48.44;100527.56;5019247;28;46293;-74
2023/07/04 10:27:39;;;;;;;;;8.00;7.00;;;;;29.11;48.95;100530.47;5032856;28;45447;-72
2023/07/04 10:30:08;;;;;;;;;8.00;7.00;;;;;29.05;48.69;100538.81;5028895;28;45744;-74
2023/07/04 10:32:41;;;;;;;;;9.00;6.33;;;;;28.93;49.05;100536.72;5019001;28;45428;-73
2023/07/04 10:35:11;;;;;;;;;8.67;8.00;;;;;28.93;48.97;100539.41;5017425;28;48217;-71
2023/07/04 10:37:39;;;;;;;;;8.67;8.33;;;;;28.92;49.48;100541.19;5029645;28;45359;-71
2023/07/04 10:40:11;;;;;;;;;9.00;8.33;;;;;28.76;49.12;100546.41;5017967;28;45542;-74
2023/07/04 10:42:44;;;;;;;;;7.67;7.33;;;;;28.75;49.27;100555.44;5016224;28;45342;-73
2023/07/04 10:45:14;;;;;;;;;9.33;7.67;;;;;28.71;49.06;100551.13;5017417;28;46565;-73
2023/07/04 10:47:43;;;;;;;;;10.33;7.67;;;;;28.78;48.77;100540.09;5019580;28;45434;-72
2023/07/04 10:50:19;;;;;;;;;7.33;7.00;;;;;28.72;48.92;100541.25;5035117;28;45445;-74
2023/07/04 10:52:48;;;;;;;;;9.00;8.00;;;;;28.76;49.31;100548.22;5022652;28;45394;-72
2023/07/04 10:55:20;;;;;;;;;9.67;8.00;;;;;28.75;49.45;100549.19;5016270;28;45504;-74
2023/07/04 10:57:56;;;;;;;;;9.00;7.67;;;;;28.60;49.92;100545.34;5016274;28;45455;-72
2023/07/04 11:00:27;;;;;;;;;10.00;8.00;;;;;28.58;49.79;100549.06;5017409;28;45398;-73
2023/07/04 11:03:04;;;;;;;;;10.33;9.67;;;;;28.42;50.14;100547.03;5019055;28;45604;-71
2023/07/04 11:05:42;;;;;;;;;11.00;11.00;;;;;28.35;49.97;100553.59;5017851;28;45562;-74
2023/07/04 11:08:14;;;;;;;;;10.67;9.33;;;;;28.24;49.41;100529.91;5015941;28;45834;-74
2023/07/04 11:10:42;;;;;;;;;11.33;11.00;;;;;28.13;49.62;100537.53;5020578;28;45538;-74
2023/07/04 11:13:13;;;;;;;;;13.00;11.00;;;;;28.18;49.09;100546.28;5021120;28;45445;-72
2023/07/04 11:15:42;;;;;;;;;9.67;9.00;;;;;28.13;49.68;100550.97;5026484;28;46096;-75
2023/07/04 11:18:15;;;;;;;;;10.00;9.00;;;;;28.25;48.63;100547.78;5021961;28;45472;-75